sensor_id;sensor_type;location;lat;lon;timestamp;P1;durP1;ratioP1;P2;durP2;ratioP2
80297;SDS011;69599;52.622;9.230;2023-05-21T00:00:13;6.07;;;4.57;;
80297;SDS011;69599;52.622;9.230;2023-05-21T00:02:39;6.97;;;4.03;;
80297;SDS011;69599;52.622;9.230;2023-05-21T00:05:05;7.28;;;4.40;;
80297;SDS011;69599;52.622;9.230;2023-05-21T00:07:35;6.68;;;4.47;;
80297;SDS011;69599;52.622;9.230;2023-05-21T00:10:01;5.32;;;3.92;;
80297;SDS011;69599;52.622;9.230;2023-05-21T00:12:26;6.47;;;4.68;;
80297;SDS011;69599;52.622;9.230;2023-05-21T00:14:52;8.13;;;5.15;;
80297;SDS011;69599;52.622;9.230;2023-05-21T00:17:18;6.53;;;4.20;;
80297;SDS011;69599;52.622;9.230;2023-05-21T00:19:44;7.13;;;4.90;;
80297;SDS011;69599;52.622;9.230;2023-05-21T00:22:13;8.07;;;4.85;;
80297;SDS011;69599;52.622;9.230;2023-05-21T00:24:40;6.20;;;4.40;;
80297;SDS011;69599;52.622;9.230;2023-05-21T00:27:09;5.03;;;4.32;;
80297;SDS011;69599;52.622;9.230;2023-05-21T00:29:36;7.43;;;4.90;;
80297;SDS011;69599;52.622;9.230;2023-05-21T00:52:57;6.28;;;5.07;;
80297;SDS011;69599;52.622;9.230;2023-05-21T00:55:23;6.28;;;4.43;;
80297;SDS011;69599;52.622;9.230;2023-05-21T00:57:54;7.82;;;4.25;;
80297;SDS011;69599;52.622;9.230;2023-05-21T01:00:21;7.22;;;4.80;;
80297;SDS011;69599;52.622;9.230;2023-05-21T01:02:48;7.95;;;5.05;;
80297;SDS011;69599;52.622;9.230;2023-05-21T01:05:14;6.93;;;5.35;;
80297;SDS011;69599;52.622;9.230;2023-05-21T01:07:44;6.85;;;4.97;;
80297;SDS011;69599;52.622;9.230;2023-05-21T01:10:12;6.28;;;5.43;;
80297;SDS011;69599;52.622;9.230;2023-05-21T01:12:43;7.50;;;4.65;;
80297;SDS011;69599;52.622;9.230;2023-05-21T01:15:10;7.90;;;4.43;;
80297;SDS011;69599;52.622;9.230;2023-05-21T01:17:37;7.57;;;4.78;;
80297;SDS011;69599;52.622;9.230;2023-05-21T01:20:07;6.53;;;4.75;;
80297;SDS011;69599;52.622;9.230;2023-05-21T01:22:54;6.72;;;3.85;;
80297;SDS011;69599;52.622;9.230;2023-05-21T01:25:24;6.45;;;4.55;;
80297;SDS011;69599;52.622;9.230;2023-05-21T01:27:59;7.70;;;4.60;;
80297;SDS011;69599;52.622;9.230;2023-05-21T01:30:32;8.45;;;4.47;;
80297;SDS011;69599;52.622;9.230;2023-05-21T01:33:25;5.70;;;4.03;;
80297;SDS011;69599;52.622;9.230;2023-05-21T01:36:03;9.10;;;4.82;;
80297;SDS011;69599;52.622;9.230;2023-05-21T01:38:46;5.82;;;3.78;;
80297;SDS011;69599;52.622;9.230;2023-05-21T01:41:15;5.30;;;3.85;;
80297;SDS011;69599;52.622;9.230;2023-05-21T01:43:43;8.23;;;4.55;;
80297;SDS011;69599;52.622;9.230;2023-05-21T01:46:11;7.35;;;4.20;;
80297;SDS011;69599;52.622;9.230;2023-05-21T01:48:46;7.10;;;4.10;;
80297;SDS011;69599;52.622;9.230;2023-05-21T01:51:12;8.18;;;4.65;;
80297;SDS011;69599;52.622;9.230;2023-05-21T01:53:37;6.32;;;4.25;;
80297;SDS011;69599;52.622;9.230;2023-05-21T01:56:04;6.55;;;4.05;;
80297;SDS011;69599;52.622;9.230;2023-05-21T01:58:30;6.88;;;4.38;;
80297;SDS011;69599;52.622;9.230;2023-05-21T02:00:55;5.93;;;4.03;;
80297;SDS011;69599;52.622;9.230;2023-05-21T02:03:21;6.22;;;4.00;;
80297;SDS011;69599;52.622;9.230;2023-05-21T02:05:49;7.00;;;5.10;;
80297;SDS011;69599;52.622;9.230;2023-05-21T02:08:15;6.28;;;4.25;;
80297;SDS011;69599;52.622;9.230;2023-05-21T02:10:43;6.25;;;3.50;;
80297;SDS011;69599;52.622;9.230;2023-05-21T02:13:09;7.95;;;3.85;;
80297;SDS011;69599;52.622;9.230;2023-05-21T02:15:34;5.80;;;3.90;;
80297;SDS011;69599;52.622;9.230;2023-05-21T02:18:00;5.95;;;4.05;;
80297;SDS011;69599;52.622;9.230;2023-05-21T02:20:26;6.72;;;4.35;;
80297;SDS011;69599;52.622;9.230;2023-05-21T02:22:51;5.47;;;4.53;;
80297;SDS011;69599;52.622;9.230;2023-05-21T02:25:17;7.03;;;4.18;;
80297;SDS011;69599;52.622;9.230;2023-05-21T02:27:45;4.68;;;3.75;;
80297;SDS011;69599;52.622;9.230;2023-05-21T02:30:11;6.88;;;3.85;;
80297;SDS011;69599;52.622;9.230;2023-05-21T02:32:38;5.28;;;4.28;;
80297;SDS011;69599;52.622;9.230;2023-05-21T02:35:06;6.45;;;3.90;;
80297;SDS011;69599;52.622;9.230;2023-05-21T02:37:32;7.45;;;4.22;;
80297;SDS011;69599;52.622;9.230;2023-05-21T02:39:59;5.07;;;3.90;;
80297;SDS011;69599;52.622;9.230;2023-05-21T02:42:25;6.93;;;3.90;;
80297;SDS011;69599;52.622;9.230;2023-05-21T02:44:50;4.63;;;3.50;;
80297;SDS011;69599;52.622;9.230;2023-05-21T02:47:17;4.90;;;3.72;;
80297;SDS011;69599;52.622;9.230;2023-05-21T02:49:43;5.47;;;3.75;;
80297;SDS011;69599;52.622;9.230;2023-05-21T02:52:08;7.15;;;4.25;;
80297;SDS011;69599;52.622;9.230;2023-05-21T02:54:34;6.85;;;4.13;;
80297;SDS011;69599;52.622;9.230;2023-05-21T02:56:59;6.45;;;4.22;;
80297;SDS011;69599;52.622;9.230;2023-05-21T02:59:25;8.45;;;4.43;;
80297;SDS011;69599;52.622;9.230;2023-05-21T03:01:50;6.63;;;4.43;;
80297;SDS011;69599;52.622;9.230;2023-05-21T03:04:16;8.15;;;4.38;;
80297;SDS011;69599;52.622;9.230;2023-05-21T03:06:42;6.95;;;4.28;;
80297;SDS011;69599;52.622;9.230;2023-05-21T03:09:08;6.45;;;4.03;;
80297;SDS011;69599;52.622;9.230;2023-05-21T03:11:34;6.60;;;3.75;;
80297;SDS011;69599;52.622;9.230;2023-05-21T03:14:00;6.72;;;3.60;;
80297;SDS011;69599;52.622;9.230;2023-05-21T03:16:25;6.05;;;3.65;;
80297;SDS011;69599;52.622;9.230;2023-05-21T03:18:52;8.25;;;3.90;;
80297;SDS011;69599;52.622;9.230;2023-05-21T03:21:18;6.97;;;3.60;;
80297;SDS011;69599;52.622;9.230;2023-05-21T03:23:46;7.20;;;4.00;;
80297;SDS011;69599;52.622;9.230;2023-05-21T03:26:12;5.20;;;3.50;;
80297;SDS011;69599;52.622;9.230;2023-05-21T03:28:38;6.45;;;4.07;;
80297;SDS011;69599;52.622;9.230;2023-05-21T03:31:03;7.50;;;4.15;;
80297;SDS011;69599;52.622;9.230;2023-05-21T03:33:29;5.50;;;3.58;;
80297;SDS011;69599;52.622;9.230;2023-05-21T03:35:54;5.03;;;3.30;;
80297;SDS011;69599;52.622;9.230;2023-05-21T03:38:20;6.75;;;3.50;;
80297;SDS011;69599;52.622;9.230;2023-05-21T03:40:45;5.28;;;3.38;;
80297;SDS011;69599;52.622;9.230;2023-05-21T03:43:10;6.65;;;3.50;;
80297;SDS011;69599;52.622;9.230;2023-05-21T03:45:36;5.97;;;4.30;;
80297;SDS011;69599;52.622;9.230;2023-05-21T03:48:01;7.10;;;4.03;;
80297;SDS011;69599;52.622;9.230;2023-05-21T03:50:27;6.07;;;4.20;;
80297;SDS011;69599;52.622;9.230;2023-05-21T03:52:52;6.13;;;4.13;;
80297;SDS011;69599;52.622;9.230;2023-05-21T03:55:18;6.95;;;3.78;;
80297;SDS011;69599;52.622;9.230;2023-05-21T03:57:43;6.93;;;4.05;;
80297;SDS011;69599;52.622;9.230;2023-05-21T04:00:09;6.60;;;4.43;;
80297;SDS011;69599;52.622;9.230;2023-05-21T04:02:34;6.35;;;3.92;;
80297;SDS011;69599;52.622;9.230;2023-05-21T04:05:00;5.38;;;3.60;;
80297;SDS011;69599;52.622;9.230;2023-05-21T04:07:25;6.30;;;3.85;;
80297;SDS011;69599;52.622;9.230;2023-05-21T04:09:51;6.97;;;3.63;;
80297;SDS011;69599;52.622;9.230;2023-05-21T04:12:17;5.55;;;3.78;;
80297;SDS011;69599;52.622;9.230;2023-05-21T04:14:44;4.93;;;3.83;;
80297;SDS011;69599;52.622;9.230;2023-05-21T04:17:10;5.88;;;3.65;;
80297;SDS011;69599;52.622;9.230;2023-05-21T04:19:36;5.55;;;3.97;;
80297;SDS011;69599;52.622;9.230;2023-05-21T04:22:02;6.57;;;3.35;;
80297;SDS011;69599;52.622;9.230;2023-05-21T04:24:28;7.05;;;4.20;;
80297;SDS011;69599;52.622;9.230;2023-05-21T04:26:53;8.23;;;4.57;;
80297;SDS011;69599;52.622;9.230;2023-05-21T04:29:20;5.18;;;3.50;;
80297;SDS011;69599;52.622;9.230;2023-05-21T04:31:48;5.55;;;4.18;;
80297;SDS011;69599;52.622;9.230;2023-05-21T04:34:14;6.93;;;3.70;;
80297;SDS011;69599;52.622;9.230;2023-05-21T04:36:44;6.57;;;3.70;;
80297;SDS011;69599;52.622;9.230;2023-05-21T04:39:10;5.47;;;3.70;;
80297;SDS011;69599;52.622;9.230;2023-05-21T04:41:36;6.68;;;3.85;;
80297;SDS011;69599;52.622;9.230;2023-05-21T04:44:03;10.00;;;4.20;;
80297;SDS011;69599;52.622;9.230;2023-05-21T04:46:30;5.47;;;3.22;;
80297;SDS011;69599;52.622;9.230;2023-05-21T04:48:55;6.78;;;3.55;;
80297;SDS011;69599;52.622;9.230;2023-05-21T04:51:22;5.40;;;3.80;;
80297;SDS011;69599;52.622;9.230;2023-05-21T04:53:48;6.18;;;3.83;;
80297;SDS011;69599;52.622;9.230;2023-05-21T04:56:17;7.15;;;4.07;;
80297;SDS011;69599;52.622;9.230;2023-05-21T04:58:43;5.55;;;4.22;;
80297;SDS011;69599;52.622;9.230;2023-05-21T05:01:09;5.32;;;3.65;;
80297;SDS011;69599;52.622;9.230;2023-05-21T05:03:34;4.55;;;3.55;;
80297;SDS011;69599;52.622;9.230;2023-05-21T05:06:00;6.35;;;3.78;;
80297;SDS011;69599;52.622;9.230;2023-05-21T05:08:28;6.15;;;3.28;;
80297;SDS011;69599;52.622;9.230;2023-05-21T05:10:53;5.78;;;3.53;;
80297;SDS011;69599;52.622;9.230;2023-05-21T05:13:19;7.60;;;4.68;;
80297;SDS011;69599;52.622;9.230;2023-05-21T05:15:44;6.32;;;3.88;;
80297;SDS011;69599;52.622;9.230;2023-05-21T05:18:10;5.35;;;3.97;;
80297;SDS011;69599;52.622;9.230;2023-05-21T05:20:36;5.35;;;3.55;;
80297;SDS011;69599;52.622;9.230;2023-05-21T05:23:01;6.22;;;3.92;;
80297;SDS011;69599;52.622;9.230;2023-05-21T05:25:27;10.55;;;4.32;;
80297;SDS011;69599;52.622;9.230;2023-05-21T05:27:52;5.82;;;4.03;;
80297;SDS011;69599;52.622;9.230;2023-05-21T05:30:18;7.10;;;4.28;;
80297;SDS011;69599;52.622;9.230;2023-05-21T05:32:44;8.77;;;4.32;;
80297;SDS011;69599;52.622;9.230;2023-05-21T05:35:10;7.22;;;3.85;;
80297;SDS011;69599;52.622;9.230;2023-05-21T05:37:36;5.20;;;3.03;;
80297;SDS011;69599;52.622;9.230;2023-05-21T05:40:01;6.80;;;3.97;;
80297;SDS011;69599;52.622;9.230;2023-05-21T05:42:28;7.18;;;3.53;;
80297;SDS011;69599;52.622;9.230;2023-05-21T05:44:53;6.00;;;3.70;;
80297;SDS011;69599;52.622;9.230;2023-05-21T05:47:19;7.80;;;4.07;;
80297;SDS011;69599;52.622;9.230;2023-05-21T05:49:45;9.30;;;4.18;;
80297;SDS011;69599;52.622;9.230;2023-05-21T05:52:11;7.70;;;4.15;;
80297;SDS011;69599;52.622;9.230;2023-05-21T05:54:36;5.78;;;3.90;;
80297;SDS011;69599;52.622;9.230;2023-05-21T05:57:02;8.68;;;4.05;;
80297;SDS011;69599;52.622;9.230;2023-05-21T05:59:27;6.03;;;4.00;;
80297;SDS011;69599;52.622;9.230;2023-05-21T06:01:53;9.13;;;4.35;;
80297;SDS011;69599;52.622;9.230;2023-05-21T06:04:18;6.13;;;4.40;;
80297;SDS011;69599;52.622;9.230;2023-05-21T06:06:43;7.97;;;4.43;;
80297;SDS011;69599;52.622;9.230;2023-05-21T06:09:10;6.50;;;4.72;;
80297;SDS011;69599;52.622;9.230;2023-05-21T06:11:35;6.70;;;4.82;;
80297;SDS011;69599;52.622;9.230;2023-05-21T06:14:01;8.80;;;4.75;;
80297;SDS011;69599;52.622;9.230;2023-05-21T06:16:27;9.43;;;4.85;;
80297;SDS011;69599;52.622;9.230;2023-05-21T06:18:55;9.10;;;5.50;;
80297;SDS011;69599;52.622;9.230;2023-05-21T06:21:20;7.78;;;5.00;;
80297;SDS011;69599;52.622;9.230;2023-05-21T06:23:46;7.10;;;5.45;;
80297;SDS011;69599;52.622;9.230;2023-05-21T06:26:11;10.38;;;5.38;;
80297;SDS011;69599;52.622;9.230;2023-05-21T06:28:36;9.02;;;5.28;;
80297;SDS011;69599;52.622;9.230;2023-05-21T06:31:02;10.45;;;7.10;;
80297;SDS011;69599;52.622;9.230;2023-05-21T06:33:27;10.38;;;6.63;;
80297;SDS011;69599;52.622;9.230;2023-05-21T06:35:53;11.27;;;6.43;;
80297;SDS011;69599;52.622;9.230;2023-05-21T06:38:18;9.52;;;6.03;;
80297;SDS011;69599;52.622;9.230;2023-05-21T06:40:44;10.52;;;6.43;;
80297;SDS011;69599;52.622;9.230;2023-05-21T06:43:11;9.30;;;6.45;;
80297;SDS011;69599;52.622;9.230;2023-05-21T06:45:37;10.57;;;6.50;;
80297;SDS011;69599;52.622;9.230;2023-05-21T06:48:04;9.80;;;6.72;;
80297;SDS011;69599;52.622;9.230;2023-05-21T06:50:33;9.75;;;6.65;;
80297;SDS011;69599;52.622;9.230;2023-05-21T06:53:04;9.70;;;6.18;;
80297;SDS011;69599;52.622;9.230;2023-05-21T06:55:33;12.68;;;7.35;;
80297;SDS011;69599;52.622;9.230;2023-05-21T06:57:58;11.77;;;7.38;;
80297;SDS011;69599;52.622;9.230;2023-05-21T07:00:25;13.18;;;7.80;;
80297;SDS011;69599;52.622;9.230;2023-05-21T07:02:50;11.00;;;6.43;;
80297;SDS011;69599;52.622;9.230;2023-05-21T07:05:17;12.40;;;7.70;;
80297;SDS011;69599;52.622;9.230;2023-05-21T07:07:43;13.85;;;7.60;;
80297;SDS011;69599;52.622;9.230;2023-05-21T07:19:29;11.27;;;7.75;;
80297;SDS011;69599;52.622;9.230;2023-05-21T07:21:54;12.38;;;7.43;;
80297;SDS011;69599;52.622;9.230;2023-05-21T07:24:20;11.80;;;7.88;;
80297;SDS011;69599;52.622;9.230;2023-05-21T07:26:46;10.75;;;7.63;;
80297;SDS011;69599;52.622;9.230;2023-05-21T07:29:11;11.20;;;8.65;;
80297;SDS011;69599;52.622;9.230;2023-05-21T07:31:37;12.98;;;8.55;;
80297;SDS011;69599;52.622;9.230;2023-05-21T07:34:02;12.50;;;8.40;;
80297;SDS011;69599;52.622;9.230;2023-05-21T07:36:27;13.73;;;9.10;;
80297;SDS011;69599;52.622;9.230;2023-05-21T07:38:53;12.60;;;9.02;;
80297;SDS011;69599;52.622;9.230;2023-05-21T07:41:19;10.15;;;8.18;;
80297;SDS011;69599;52.622;9.230;2023-05-21T07:43:46;14.18;;;8.93;;
80297;SDS011;69599;52.622;9.230;2023-05-21T07:46:11;11.65;;;8.93;;
80297;SDS011;69599;52.622;9.230;2023-05-21T07:48:36;13.88;;;8.68;;
80297;SDS011;69599;52.622;9.230;2023-05-21T07:51:02;16.88;;;10.23;;
80297;SDS011;69599;52.622;9.230;2023-05-21T07:53:27;12.73;;;8.57;;
80297;SDS011;69599;52.622;9.230;2023-05-21T07:55:56;13.77;;;9.48;;
80297;SDS011;69599;52.622;9.230;2023-05-21T07:58:22;14.30;;;9.63;;
80297;SDS011;69599;52.622;9.230;2023-05-21T08:00:47;13.52;;;9.65;;
80297;SDS011;69599;52.622;9.230;2023-05-21T08:03:13;14.52;;;10.30;;
80297;SDS011;69599;52.622;9.230;2023-05-21T08:05:42;15.55;;;10.38;;
80297;SDS011;69599;52.622;9.230;2023-05-21T08:08:17;14.60;;;9.57;;
80297;SDS011;69599;52.622;9.230;2023-05-21T08:10:43;15.38;;;10.60;;
80297;SDS011;69599;52.622;9.230;2023-05-21T08:13:10;13.80;;;9.85;;
80297;SDS011;69599;52.622;9.230;2023-05-21T08:15:35;14.93;;;9.60;;
80297;SDS011;69599;52.622;9.230;2023-05-21T08:18:01;14.57;;;10.20;;
80297;SDS011;69599;52.622;9.230;2023-05-21T08:20:26;15.48;;;9.68;;
80297;SDS011;69599;52.622;9.230;2023-05-21T08:22:53;16.63;;;10.52;;
80297;SDS011;69599;52.622;9.230;2023-05-21T08:25:18;16.33;;;10.82;;
80297;SDS011;69599;52.622;9.230;2023-05-21T08:27:44;15.30;;;10.98;;
80297;SDS011;69599;52.622;9.230;2023-05-21T08:30:09;14.93;;;9.48;;
80297;SDS011;69599;52.622;9.230;2023-05-21T08:32:35;15.10;;;10.45;;
80297;SDS011;69599;52.622;9.230;2023-05-21T08:35:01;15.07;;;10.77;;
80297;SDS011;69599;52.622;9.230;2023-05-21T08:37:27;15.70;;;10.38;;
80297;SDS011;69599;52.622;9.230;2023-05-21T08:39:52;16.20;;;10.25;;
80297;SDS011;69599;52.622;9.230;2023-05-21T08:42:29;14.68;;;10.18;;
80297;SDS011;69599;52.622;9.230;2023-05-21T08:45:02;14.75;;;10.13;;
80297;SDS011;69599;52.622;9.230;2023-05-21T08:47:30;13.68;;;10.50;;
80297;SDS011;69599;52.622;9.230;2023-05-21T08:52:23;16.10;;;10.37;;
80297;SDS011;69599;52.622;9.230;2023-05-21T08:54:50;16.13;;;11.07;;
80297;SDS011;69599;52.622;9.230;2023-05-21T08:57:16;16.42;;;10.35;;
80297;SDS011;69599;52.622;9.230;2023-05-21T08:59:44;14.60;;;10.10;;
80297;SDS011;69599;52.622;9.230;2023-05-21T09:02:10;16.15;;;11.68;;
80297;SDS011;69599;52.622;9.230;2023-05-21T09:04:37;13.88;;;10.88;;
80297;SDS011;69599;52.622;9.230;2023-05-21T09:07:04;15.98;;;10.77;;
80297;SDS011;69599;52.622;9.230;2023-05-21T09:09:31;15.68;;;11.27;;
80297;SDS011;69599;52.622;9.230;2023-05-21T09:11:58;16.58;;;10.90;;
80297;SDS011;69599;52.622;9.230;2023-05-21T09:14:26;19.17;;;11.60;;
80297;SDS011;69599;52.622;9.230;2023-05-21T09:16:52;16.42;;;11.15;;
80297;SDS011;69599;52.622;9.230;2023-05-21T09:19:21;15.80;;;11.40;;
80297;SDS011;69599;52.622;9.230;2023-05-21T09:21:49;15.65;;;11.10;;
80297;SDS011;69599;52.622;9.230;2023-05-21T09:24:19;18.88;;;11.20;;
80297;SDS011;69599;52.622;9.230;2023-05-21T09:26:46;14.25;;;10.30;;
80297;SDS011;69599;52.622;9.230;2023-05-21T09:29:14;15.88;;;10.93;;
80297;SDS011;69599;52.622;9.230;2023-05-21T09:31:43;14.23;;;10.63;;
80297;SDS011;69599;52.622;9.230;2023-05-21T09:34:11;12.73;;;9.88;;
80297;SDS011;69599;52.622;9.230;2023-05-21T09:36:38;15.45;;;10.45;;
80297;SDS011;69599;52.622;9.230;2023-05-21T09:39:03;15.50;;;11.38;;
80297;SDS011;69599;52.622;9.230;2023-05-21T09:41:33;15.82;;;11.05;;
80297;SDS011;69599;52.622;9.230;2023-05-21T09:44:00;14.73;;;10.60;;
80297;SDS011;69599;52.622;9.230;2023-05-21T09:46:25;14.32;;;10.73;;
80297;SDS011;69599;52.622;9.230;2023-05-21T09:48:51;15.55;;;11.18;;
80297;SDS011;69599;52.622;9.230;2023-05-21T09:51:20;14.48;;;10.82;;
80297;SDS011;69599;52.622;9.230;2023-05-21T09:53:49;15.43;;;11.20;;
80297;SDS011;69599;52.622;9.230;2023-05-21T09:56:23;14.13;;;9.90;;
80297;SDS011;69599;52.622;9.230;2023-05-21T09:58:53;13.38;;;10.45;;
80297;SDS011;69599;52.622;9.230;2023-05-21T10:01:19;15.70;;;11.02;;
80297;SDS011;69599;52.622;9.230;2023-05-21T10:03:46;15.82;;;11.80;;
80297;SDS011;69599;52.622;9.230;2023-05-21T10:06:14;15.30;;;11.15;;
80297;SDS011;69599;52.622;9.230;2023-05-21T10:08:41;15.20;;;10.23;;
80297;SDS011;69599;52.622;9.230;2023-05-21T10:11:09;13.75;;;10.10;;
80297;SDS011;69599;52.622;9.230;2023-05-21T10:13:37;15.07;;;10.85;;
80297;SDS011;69599;52.622;9.230;2023-05-21T10:16:03;14.65;;;10.23;;
80297;SDS011;69599;52.622;9.230;2023-05-21T10:18:29;13.27;;;10.43;;
80297;SDS011;69599;52.622;9.230;2023-05-21T10:20:56;16.45;;;11.45;;
80297;SDS011;69599;52.622;9.230;2023-05-21T10:23:22;12.27;;;9.73;;
80297;SDS011;69599;52.622;9.230;2023-05-21T10:25:48;14.85;;;10.70;;
80297;SDS011;69599;52.622;9.230;2023-05-21T10:28:14;13.75;;;10.25;;
80297;SDS011;69599;52.622;9.230;2023-05-21T10:30:41;19.25;;;10.38;;
80297;SDS011;69599;52.622;9.230;2023-05-21T10:33:07;15.55;;;10.75;;
80297;SDS011;69599;52.622;9.230;2023-05-21T10:35:32;16.92;;;11.23;;
80297;SDS011;69599;52.622;9.230;2023-05-21T10:37:58;18.60;;;12.38;;
80297;SDS011;69599;52.622;9.230;2023-05-21T10:40:25;15.45;;;11.85;;
80297;SDS011;69599;52.622;9.230;2023-05-21T10:59:06;15.25;;;11.25;;
80297;SDS011;69599;52.622;9.230;2023-05-21T11:01:36;13.98;;;11.18;;
80297;SDS011;69599;52.622;9.230;2023-05-21T11:04:05;13.55;;;11.00;;
80297;SDS011;69599;52.622;9.230;2023-05-21T11:06:30;13.73;;;11.00;;
80297;SDS011;69599;52.622;9.230;2023-05-21T11:08:56;12.82;;;10.00;;
80297;SDS011;69599;52.622;9.230;2023-05-21T11:14:28;14.00;;;11.18;;
80297;SDS011;69599;52.622;9.230;2023-05-21T11:19:41;13.73;;;10.70;;
80297;SDS011;69599;52.622;9.230;2023-05-21T11:24:45;12.20;;;10.02;;
80297;SDS011;69599;52.622;9.230;2023-05-21T11:27:11;13.65;;;10.48;;
80297;SDS011;69599;52.622;9.230;2023-05-21T11:29:40;13.20;;;10.48;;
80297;SDS011;69599;52.622;9.230;2023-05-21T11:32:08;15.07;;;11.05;;
80297;SDS011;69599;52.622;9.230;2023-05-21T11:34:37;15.20;;;9.90;;
80297;SDS011;69599;52.622;9.230;2023-05-21T11:39:44;14.70;;;11.10;;
80297;SDS011;69599;52.622;9.230;2023-05-21T11:42:11;14.18;;;10.85;;
80297;SDS011;69599;52.622;9.230;2023-05-21T11:47:03;13.27;;;10.73;;
80297;SDS011;69599;52.622;9.230;2023-05-21T11:49:29;13.63;;;10.48;;
80297;SDS011;69599;52.622;9.230;2023-05-21T11:51:55;13.68;;;9.90;;
80297;SDS011;69599;52.622;9.230;2023-05-21T11:54:22;12.02;;;9.55;;
80297;SDS011;69599;52.622;9.230;2023-05-21T11:56:48;12.00;;;9.93;;
80297;SDS011;69599;52.622;9.230;2023-05-21T11:59:13;12.77;;;10.63;;
80297;SDS011;69599;52.622;9.230;2023-05-21T12:01:42;12.65;;;10.13;;
80297;SDS011;69599;52.622;9.230;2023-05-21T12:06:35;12.77;;;9.95;;
80297;SDS011;69599;52.622;9.230;2023-05-21T12:09:02;11.82;;;9.70;;
80297;SDS011;69599;52.622;9.230;2023-05-21T12:11:28;15.88;;;10.63;;
80297;SDS011;69599;52.622;9.230;2023-05-21T12:13:54;11.73;;;10.30;;
80297;SDS011;69599;52.622;9.230;2023-05-21T12:16:19;11.35;;;9.85;;
80297;SDS011;69599;52.622;9.230;2023-05-21T12:18:44;12.93;;;9.43;;
80297;SDS011;69599;52.622;9.230;2023-05-21T12:21:10;10.77;;;9.18;;
80297;SDS011;69599;52.622;9.230;2023-05-21T12:23:36;13.23;;;10.48;;
80297;SDS011;69599;52.622;9.230;2023-05-21T12:26:01;12.90;;;9.48;;
80297;SDS011;69599;52.622;9.230;2023-05-21T12:28:27;13.20;;;10.30;;
80297;SDS011;69599;52.622;9.230;2023-05-21T12:30:53;12.52;;;9.65;;
80297;SDS011;69599;52.622;9.230;2023-05-21T12:33:18;11.23;;;8.98;;
80297;SDS011;69599;52.622;9.230;2023-05-21T12:35:48;11.30;;;9.60;;
80297;SDS011;69599;52.622;9.230;2023-05-21T12:38:14;10.32;;;9.13;;
80297;SDS011;69599;52.622;9.230;2023-05-21T12:40:40;10.30;;;8.85;;
80297;SDS011;69599;52.622;9.230;2023-05-21T12:43:07;12.65;;;8.68;;
80297;SDS011;69599;52.622;9.230;2023-05-21T12:45:33;10.60;;;9.50;;
80297;SDS011;69599;52.622;9.230;2023-05-21T12:48:01;11.85;;;9.25;;
80297;SDS011;69599;52.622;9.230;2023-05-21T12:50:27;12.10;;;9.25;;
80297;SDS011;69599;52.622;9.230;2023-05-21T12:52:53;12.02;;;10.02;;
80297;SDS011;69599;52.622;9.230;2023-05-21T12:55:23;9.95;;;8.80;;
80297;SDS011;69599;52.622;9.230;2023-05-21T12:58:04;11.77;;;9.25;;
80297;SDS011;69599;52.622;9.230;2023-05-21T13:00:32;10.43;;;9.07;;
80297;SDS011;69599;52.622;9.230;2023-05-21T13:02:58;11.63;;;8.50;;
80297;SDS011;69599;52.622;9.230;2023-05-21T13:05:24;12.88;;;9.57;;
80297;SDS011;69599;52.622;9.230;2023-05-21T13:07:50;11.98;;;9.07;;
80297;SDS011;69599;52.622;9.230;2023-05-21T13:10:16;9.88;;;8.88;;
80297;SDS011;69599;52.622;9.230;2023-05-21T13:12:41;11.55;;;9.27;;
80297;SDS011;69599;52.622;9.230;2023-05-21T13:15:07;9.88;;;8.88;;
80297;SDS011;69599;52.622;9.230;2023-05-21T13:17:33;13.02;;;8.68;;
80297;SDS011;69599;52.622;9.230;2023-05-21T13:20:11;10.60;;;8.60;;
80297;SDS011;69599;52.622;9.230;2023-05-21T13:22:51;9.63;;;8.63;;
80297;SDS011;69599;52.622;9.230;2023-05-21T13:25:17;9.50;;;8.30;;
80297;SDS011;69599;52.622;9.230;2023-05-21T13:27:52;11.05;;;8.27;;
80297;SDS011;69599;52.622;9.230;2023-05-21T13:30:17;10.07;;;8.23;;
80297;SDS011;69599;52.622;9.230;2023-05-21T13:32:43;10.75;;;8.55;;
80297;SDS011;69599;52.622;9.230;2023-05-21T13:35:09;9.05;;;8.07;;
80297;SDS011;69599;52.622;9.230;2023-05-21T13:37:37;9.40;;;8.30;;
80297;SDS011;69599;52.622;9.230;2023-05-21T13:40:04;10.38;;;7.75;;
80297;SDS011;69599;52.622;9.230;2023-05-21T13:42:30;9.60;;;8.10;;
80297;SDS011;69599;52.622;9.230;2023-05-21T13:44:56;10.40;;;8.07;;
80297;SDS011;69599;52.622;9.230;2023-05-21T13:47:22;10.63;;;8.38;;
80297;SDS011;69599;52.622;9.230;2023-05-21T13:49:47;9.27;;;7.85;;
80297;SDS011;69599;52.622;9.230;2023-05-21T13:52:13;9.52;;;8.40;;
80297;SDS011;69599;52.622;9.230;2023-05-21T13:54:38;9.70;;;8.00;;
80297;SDS011;69599;52.622;9.230;2023-05-21T13:57:04;11.25;;;8.35;;
80297;SDS011;69599;52.622;9.230;2023-05-21T13:59:30;10.00;;;7.93;;
80297;SDS011;69599;52.622;9.230;2023-05-21T14:01:55;8.98;;;8.07;;
80297;SDS011;69599;52.622;9.230;2023-05-21T14:04:22;11.65;;;8.02;;
80297;SDS011;69599;52.622;9.230;2023-05-21T14:06:47;9.77;;;8.77;;
80297;SDS011;69599;52.622;9.230;2023-05-21T14:09:13;10.60;;;8.52;;
80297;SDS011;69599;52.622;9.230;2023-05-21T14:11:38;11.90;;;8.60;;
80297;SDS011;69599;52.622;9.230;2023-05-21T14:14:04;11.60;;;8.98;;
80297;SDS011;69599;52.622;9.230;2023-05-21T14:16:30;9.18;;;7.82;;
80297;SDS011;69599;52.622;9.230;2023-05-21T14:18:55;12.00;;;8.38;;
80297;SDS011;69599;52.622;9.230;2023-05-21T14:21:21;11.00;;;9.00;;
80297;SDS011;69599;52.622;9.230;2023-05-21T14:23:47;11.85;;;9.10;;
80297;SDS011;69599;52.622;9.230;2023-05-21T14:26:13;10.48;;;8.93;;
80297;SDS011;69599;52.622;9.230;2023-05-21T14:28:39;11.20;;;10.00;;
80297;SDS011;69599;52.622;9.230;2023-05-21T14:31:05;12.88;;;9.15;;
80297;SDS011;69599;52.622;9.230;2023-05-21T14:33:30;10.50;;;8.82;;
80297;SDS011;69599;52.622;9.230;2023-05-21T14:35:57;11.43;;;9.73;;
80297;SDS011;69599;52.622;9.230;2023-05-21T14:38:23;12.27;;;9.55;;
80297;SDS011;69599;52.622;9.230;2023-05-21T14:40:48;10.13;;;9.07;;
80297;SDS011;69599;52.622;9.230;2023-05-21T14:43:14;10.52;;;8.95;;
80297;SDS011;69599;52.622;9.230;2023-05-21T14:45:39;11.18;;;9.68;;
80297;SDS011;69599;52.622;9.230;2023-05-21T14:48:05;10.93;;;9.77;;
80297;SDS011;69599;52.622;9.230;2023-05-21T14:50:35;10.52;;;9.43;;
80297;SDS011;69599;52.622;9.230;2023-05-21T14:53:07;12.25;;;9.32;;
80297;SDS011;69599;52.622;9.230;2023-05-21T14:55:34;11.02;;;9.93;;
80297;SDS011;69599;52.622;9.230;2023-05-21T14:58:00;11.88;;;9.57;;
80297;SDS011;69599;52.622;9.230;2023-05-21T15:00:27;12.98;;;10.20;;
80297;SDS011;69599;52.622;9.230;2023-05-21T15:02:52;13.13;;;10.50;;
80297;SDS011;69599;52.622;9.230;2023-05-21T15:05:18;12.18;;;10.18;;
80297;SDS011;69599;52.622;9.230;2023-05-21T15:07:43;15.63;;;10.48;;
80297;SDS011;69599;52.622;9.230;2023-05-21T15:10:09;12.43;;;10.18;;
80297;SDS011;69599;52.622;9.230;2023-05-21T15:12:35;11.80;;;10.57;;
80297;SDS011;69599;52.622;9.230;2023-05-21T15:15:01;11.65;;;10.18;;
80297;SDS011;69599;52.622;9.230;2023-05-21T15:17:26;13.80;;;10.07;;
80297;SDS011;69599;52.622;9.230;2023-05-21T15:19:52;12.38;;;10.02;;
80297;SDS011;69599;52.622;9.230;2023-05-21T15:22:17;12.13;;;9.85;;
80297;SDS011;69599;52.622;9.230;2023-05-21T15:24:43;11.40;;;10.20;;
80297;SDS011;69599;52.622;9.230;2023-05-21T15:27:08;12.93;;;10.07;;
80297;SDS011;69599;52.622;9.230;2023-05-21T15:29:34;13.00;;;10.20;;
80297;SDS011;69599;52.622;9.230;2023-05-21T15:32:00;11.95;;;10.50;;
80297;SDS011;69599;52.622;9.230;2023-05-21T15:34:29;11.35;;;9.98;;
80297;SDS011;69599;52.622;9.230;2023-05-21T15:36:58;14.20;;;9.98;;
80297;SDS011;69599;52.622;9.230;2023-05-21T15:39:24;11.70;;;10.20;;